Time;durP1;ratioP1;P1;durP2;ratioP2;P2;SDS_P1;SDS_P2;PMS_P1;PMS_P2;Temp;Humidity;BMP_temperature;BMP_pressure;BME280_temperature;BME280_humidity;BME280_pressure;Samples;Min_cycle;Max_cycle;Signal;HPM_P1;HPM_P2
2021/06/26 00:00:08;;;;;;;0.40;0.30;;;17.10;99.90;;;;;;5031110;28;20382;-82
2021/06/26 00:02:33;;;;;;;0.40;0.30;;;17.10;99.90;;;;;;5030595;28;20804;-82
2021/06/26 00:04:59;;;;;;;0.40;0.20;;;17.10;99.90;;;;;;5030908;28;20414;-82
2021/06/26 00:07:24;;;;;;;0.40;0.20;;;17.10;99.90;;;;;;5030221;28;20379;-82
2021/06/26 00:09:50;;;;;;;0.40;0.30;;;17.20;99.90;;;;;;5031113;28;20426;-82
2021/06/26 00:12:16;;;;;;;0.40;0.20;;;17.20;99.90;;;;;;5039231;28;20437;-82
2021/06/26 00:14:41;;;;;;;0.40;0.30;;;17.10;99.90;;;;;;5049704;28;20393;-82
2021/06/26 00:17:08;;;;;;;0.40;0.30;;;17.00;99.90;;;;;;5050962;28;20380;-82
2021/06/26 00:19:34;;;;;;;0.40;0.20;;;17.00;99.90;;;;;;5050736;28;20373;-82
2021/06/26 00:22:00;;;;;;;0.40;0.30;;;17.00;99.90;;;;;;5050485;28;20706;-82
2021/06/26 00:24:25;;;;;;;0.40;0.30;;;17.00;99.90;;;;;;5049775;28;20452;-82
2021/06/26 00:26:51;;;;;;;0.40;0.30;;;16.90;99.90;;;;;;5049184;28;20856;-82
2021/06/26 00:29:17;;;;;;;0.40;0.30;;;17.00;99.90;;;;;;5049921;28;20380;-82
2021/06/26 00:31:43;;;;;;;0.40;0.30;;;16.80;99.90;;;;;;5050289;28;20382;-82
2021/06/26 00:34:09;;;;;;;0.40;0.30;;;16.80;99.90;;;;;;5049169;28;20474;-83
2021/06/26 00:36:34;;;;;;;0.40;0.20;;;16.70;99.90;;;;;;5050275;28;20432;-83
2021/06/26 00:39:00;;;;;;;0.40;0.20;;;16.70;99.90;;;;;;5049003;28;20887;-83
2021/06/26 00:41:26;;;;;;;0.40;0.20;;;16.70;99.90;;;;;;5048384;28;20448;-83
2021/06/26 00:43:51;;;;;;;0.40;0.20;;;16.80;99.90;;;;;;5050393;28;20873;-82
2021/06/26 00:46:17;;;;;;;0.40;0.27;;;16.60;99.90;;;;;;5049547;28;20448;-82
2021/06/26 00:48:43;;;;;;;0.40;0.20;;;16.60;99.90;;;;;;5049000;28;20397;-82
2021/06/26 00:51:08;;;;;;;0.40;0.30;;;16.70;99.90;;;;;;5050377;28;20378;-82
2021/06/26 00:53:34;;;;;;;0.40;0.20;;;16.70;99.90;;;;;;5049603;28;20911;-82
2021/06/26 00:56:02;;;;;;;0.40;0.30;;;16.70;99.90;;;;;;5052512;28;20391;-83
2021/06/26 00:58:28;;;;;;;0.40;0.22;;;16.70;99.90;;;;;;5053232;28;20377;-82
2021/06/26 01:00:54;;;;;;;0.40;0.20;;;16.60;99.90;;;;;;5052430;28;20450;-82
2021/06/26 01:03:20;;;;;;;0.40;0.20;;;16.60;99.90;;;;;;5052860;28;20476;-82
2021/06/26 01:05:46;;;;;;;0.40;0.20;;;16.60;99.90;;;;;;5053742;28;20826;-83
2021/06/26 01:08:12;;;;;;;0.40;0.20;;;16.50;99.90;;;;;;5053154;28;20392;-80
2021/06/26 01:10:38;;;;;;;0.40;0.20;;;16.40;99.90;;;;;;5053525;28;20678;-81
2021/06/26 01:13:05;;;;;;;0.40;0.20;;;16.40;99.90;;;;;;5038315;28;20383;-81
2021/06/26 01:15:32;;;;;;;0.40;0.20;;;16.30;99.90;;;;;;5033070;28;20440;-81
2021/06/26 01:17:57;;;;;;;0.40;0.20;;;16.30;99.90;;;;;;5033864;28;20387;-81
2021/06/26 01:20:24;;;;;;;0.40;0.20;;;16.30;99.90;;;;;;5032892;28;20372;-81
2021/06/26 01:22:55;;;;;;;0.40;0.20;;;16.20;99.90;;;;;;5033290;28;20379;-81
2021/06/26 01:25:22;;;;;;;0.40;0.20;;;16.30;99.90;;;;;;5030888;28;20517;-82
2021/06/26 01:27:49;;;;;;;0.40;0.20;;;16.20;99.90;;;;;;5033461;28;20383;-82
2021/06/26 01:30:21;;;;;;;0.40;0.20;;;16.20;99.90;;;;;;5032772;28;20410;-82
2021/06/26 01:32:46;;;;;;;0.40;0.20;;;16.10;99.90;;;;;;5031945;28;20486;-82
2021/06/26 01:35:12;;;;;;;0.50;0.30;;;16.00;99.90;;;;;;5031972;28;20391;-82
2021/06/26 01:37:39;;;;;;;0.40;0.20;;;16.00;99.90;;;;;;5031562;28;20395;-82
2021/06/26 01:40:06;;;;;;;0.40;0.20;;;16.00;99.90;;;;;;5031699;28;20414;-82
2021/06/26 01:42:32;;;;;;;0.40;0.20;;;15.90;99.90;;;;;;5032467;28;20390;-82
2021/06/26 01:44:58;;;;;;;0.40;0.30;;;15.90;99.90;;;;;;5032459;28;20411;-82
2021/06/26 01:47:24;;;;;;;0.40;0.20;;;15.90;99.90;;;;;;5032205;28;20490;-82
2021/06/26 01:49:49;;;;;;;0.40;0.30;;;15.90;99.90;;;;;;5032998;28;20371;-81
2021/06/26 01:52:15;;;;;;;0.40;0.20;;;15.90;99.90;;;;;;5032166;28;20427;-82
2021/06/26 01:54:41;;;;;;;0.40;0.30;;;15.80;99.90;;;;;;5033011;28;20403;-82
2021/06/26 01:57:10;;;;;;;0.40;0.20;;;15.70;99.90;;;;;;5032892;28;20375;-81
2021/06/26 01:59:36;;;;;;;0.40;0.20;;;15.80;99.90;;;;;;5030888;28;20418;-82
2021/06/26 02:02:02;;;;;;;0.40;0.20;;;15.60;99.90;;;;;;5032790;28;20441;-82
2021/06/26 02:04:27;;;;;;;0.40;0.20;;;15.70;99.90;;;;;;5030727;28;20516;-82
2021/06/26 02:06:53;;;;;;;0.40;0.20;;;15.60;99.90;;;;;;5030493;28;20419;-82
2021/06/26 02:09:18;;;;;;;0.40;0.20;;;15.60;99.90;;;;;;5031729;28;20419;-82
2021/06/26 02:11:44;;;;;;;0.40;0.20;;;15.60;99.90;;;;;;5036211;28;20478;-82
2021/06/26 02:14:11;;;;;;;0.40;0.20;;;15.60;99.90;;;;;;5052729;28;20378;-81
2021/06/26 02:16:37;;;;;;;0.40;0.25;;;15.70;99.90;;;;;;5051899;28;20459;-83
2021/06/26 02:19:03;;;;;;;0.40;0.30;;;15.60;99.90;;;;;;5052656;28;20485;-82
2021/06/26 02:21:29;;;;;;;0.40;0.20;;;15.50;99.90;;;;;;5051726;28;20877;-82
2021/06/26 02:23:54;;;;;;;0.40;0.30;;;15.60;99.90;;;;;;5050084;28;20729;-82
2021/06/26 02:26:20;;;;;;;0.40;0.20;;;15.50;99.90;;;;;;5051580;28;20765;-83
2021/06/26 02:28:46;;;;;;;0.40;0.20;;;15.60;99.90;;;;;;5050785;28;20677;-82
2021/06/26 02:31:12;;;;;;;0.40;0.30;;;15.60;99.90;;;;;;5052214;28;20386;-82
2021/06/26 02:33:37;;;;;;;0.40;0.20;;;15.60;99.90;;;;;;5051496;28;20435;-82
2021/06/26 02:36:03;;;;;;;0.40;0.20;;;15.60;99.90;;;;;;5050762;28;20392;-82
2021/06/26 02:38:29;;;;;;;0.40;0.30;;;15.50;99.90;;;;;;5051205;28;20451;-82
2021/06/26 02:40:55;;;;;;;0.40;0.20;;;15.50;99.90;;;;;;5051849;28;20374;-82
2021/06/26 02:43:20;;;;;;;0.40;0.30;;;15.50;99.90;;;;;;5050907;28;20405;-83
2021/06/26 02:45:47;;;;;;;0.40;0.30;;;15.50;99.90;;;;;;5050533;28;20389;-82
2021/06/26 02:48:13;;;;;;;0.40;0.20;;;15.50;99.90;;;;;;5051272;28;20912;-82
2021/06/26 02:50:39;;;;;;;0.40;0.20;;;15.40;99.90;;;;;;5049729;28;20396;-82
2021/06/26 02:53:05;;;;;;;0.40;0.20;;;15.40;99.90;;;;;;5052105;28;20377;-82
2021/06/26 02:55:31;;;;;;;0.40;0.30;;;15.40;99.90;;;;;;5050624;28;20394;-82
2021/06/26 02:57:57;;;;;;;0.47;0.28;;;15.30;99.90;;;;;;5051620;28;20721;-82
2021/06/26 03:00:23;;;;;;;0.40;0.30;;;15.30;99.90;;;;;;5050635;28;20385;-81
2021/06/26 03:02:49;;;;;;;0.40;0.20;;;15.30;99.90;;;;;;5051298;28;20881;-82
2021/06/26 03:05:14;;;;;;;0.40;0.20;;;15.40;99.90;;;;;;5051119;28;20492;-82
2021/06/26 03:07:51;;;;;;;0.40;0.20;;;15.30;99.90;;;;;;5044885;28;20396;-82
2021/06/26 03:10:17;;;;;;;0.40;0.20;;;15.20;99.90;;;;;;5018733;28;20434;-83
2021/06/26 03:12:43;;;;;;;0.40;0.20;;;15.10;99.90;;;;;;4994134;28;20541;-82
2021/06/26 03:15:09;;;;;;;0.40;0.20;;;15.10;99.90;;;;;;5009062;28;21332;-83
2021/06/26 03:17:35;;;;;;;0.40;0.20;;;15.10;99.90;;;;;;5015880;28;20407;-82
2021/06/26 03:20:00;;;;;;;0.40;0.20;;;15.20;99.90;;;;;;5016033;28;20439;-82
2021/06/26 03:22:26;;;;;;;0.40;0.30;;;15.20;99.90;;;;;;5018189;28;20490;-82
2021/06/26 03:24:52;;;;;;;0.40;0.30;;;15.40;99.90;;;;;;5017522;28;20525;-82
2021/06/26 03:27:19;;;;;;;0.40;0.30;;;15.40;99.90;;;;;;5014469;28;20426;-82
2021/06/26 03:29:45;;;;;;;0.40;0.20;;;15.30;99.90;;;;;;5007878;28;20375;-82
2021/06/26 03:32:11;;;;;;;0.40;0.20;;;15.40;99.90;;;;;;5017049;28;20481;-82
2021/06/26 03:34:37;;;;;;;0.40;0.30;;;15.30;99.90;;;;;;5015422;28;20418;-83
2021/06/26 03:37:03;;;;;;;0.40;0.20;;;15.30;99.90;;;;;;5016751;28;20411;-82
2021/06/26 03:39:29;;;;;;;0.40;0.30;;;15.10;99.90;;;;;;5018103;28;20464;-82
2021/06/26 03:41:54;;;;;;;0.40;0.20;;;15.10;99.90;;;;;;5017978;28;20424;-82
2021/06/26 03:44:20;;;;;;;0.40;0.30;;;15.20;99.90;;;;;;5016606;28;20747;-83
2021/06/26 03:46:46;;;;;;;0.40;0.20;;;15.10;99.90;;;;;;5016964;28;20383;-82
2021/06/26 03:49:11;;;;;;;0.40;0.20;;;15.10;99.90;;;;;;5016479;28;20490;-82
2021/06/26 03:51:39;;;;;;;0.40;0.20;;;15.20;99.90;;;;;;5016921;28;20403;-82
2021/06/26 03:54:05;;;;;;;0.40;0.20;;;15.30;99.90;;;;;;5006109;28;20449;-82
2021/06/26 03:56:30;;;;;;;0.40;0.20;;;15.20;99.90;;;;;;5007766;28;20874;-81
2021/06/26 03:58:56;;;;;;;0.40;0.20;;;15.30;99.90;;;;;;5016008;28;20379;-81
2021/06/26 04:01:22;;;;;;;0.40;0.25;;;15.30;99.90;;;;;;5017812;28;20394;-81
2021/06/26 04:03:48;;;;;;;0.40;0.20;;;15.30;99.90;;;;;;5017344;28;20461;-81
2021/06/26 04:06:14;;;;;;;0.40;0.20;;;15.30;99.90;;;;;;5017218;28;20794;-82
2021/06/26 04:08:40;;;;;;;0.40;0.20;;;15.30;99.90;;;;;;5016675;28;20396;-82
2021/06/26 04:11:06;;;;;;;0.40;0.20;;;15.40;99.90;;;;;;5017297;28;20414;-82
2021/06/26 04:13:31;;;;;;;0.40;0.20;;;15.30;99.90;;;;;;5017070;28;20422;-82
2021/06/26 04:15:57;;;;;;;0.60;0.60;;;15.40;99.90;;;;;;5016551;28;21028;-81
2021/06/26 04:18:23;;;;;;;0.40;0.30;;;15.50;99.90;;;;;;5015821;28;20981;-82
2021/06/26 04:20:48;;;;;;;0.40;0.20;;;15.40;99.90;;;;;;5018314;28;20490;-82
2021/06/26 04:23:14;;;;;;;0.40;0.20;;;15.30;99.90;;;;;;5016654;28;20974;-82
2021/06/26 04:25:40;;;;;;;0.40;0.20;;;15.40;99.90;;;;;;5017587;28;20806;-81
2021/06/26 04:28:15;;;;;;;0.40;0.20;;;15.50;99.90;;;;;;5016344;28;20403;-81
2021/06/26 04:30:40;;;;;;;0.40;0.30;;;15.60;99.90;;;;;;5020642;28;20469;-81
2021/06/26 04:33:06;;;;;;;0.40;0.20;;;15.50;99.90;;;;;;5021742;28;20576;-82
2021/06/26 04:35:32;;;;;;;0.40;0.20;;;15.50;99.90;;;;;;5020091;28;20731;-82
2021/06/26 04:37:58;;;;;;;0.40;0.20;;;15.50;99.90;;;;;;5021042;28;20383;-82
2021/06/26 04:40:24;;;;;;;0.40;0.20;;;15.60;99.90;;;;;;5005621;28;20901;-82
2021/06/26 04:42:52;;;;;;;0.40;0.20;;;15.60;99.90;;;;;;5019966;28;20871;-82
2021/06/26 04:45:18;;;;;;;0.40;0.20;;;15.60;99.90;;;;;;5018644;28;20423;-82
2021/06/26 04:47:44;;;;;;;0.40;0.20;;;15.60;99.90;;;;;;5021014;28;20395;-82
2021/06/26 04:50:11;;;;;;;0.40;0.28;;;15.70;99.90;;;;;;5021454;28;20930;-82
2021/06/26 04:52:40;;;;;;;0.40;0.20;;;15.90;99.90;;;;;;5020884;28;20388;-82
2021/06/26 04:55:06;;;;;;;0.40;0.20;;;15.90;99.90;;;;;;5020538;28;20411;-82
2021/06/26 04:57:32;;;;;;;0.40;0.20;;;16.00;99.90;;;;;;5020400;28;20486;-82
2021/06/26 04:59:57;;;;;;;0.40;0.20;;;16.00;99.90;;;;;;5019890;28;20394;-82
2021/06/26 05:02:23;;;;;;;0.40;0.20;;;16.10;99.90;;;;;;5021584;28;20425;-82
2021/06/26 05:04:48;;;;;;;0.40;0.20;;;16.10;99.90;;;;;;5019486;28;20433;-81
2021/06/26 05:07:14;;;;;;;0.40;0.20;;;16.20;99.90;;;;;;5020709;28;20424;-81
2021/06/26 05:09:40;;;;;;;0.40;0.20;;;16.20;99.90;;;;;;5019721;28;20421;-81
2021/06/26 05:12:06;;;;;;;0.40;0.28;;;16.10;99.90;;;;;;5020941;28;20403;-81
2021/06/26 05:14:32;;;;;;;0.40;0.20;;;16.20;99.90;;;;;;5019051;28;20395;-81
2021/06/26 05:16:58;;;;;;;0.40;0.20;;;16.20;99.90;;;;;;5019283;28;20444;-80
2021/06/26 05:19:24;;;;;;;0.40;0.20;;;16.30;99.90;;;;;;5020836;28;20775;-81
2021/06/26 05:21:50;;;;;;;0.40;0.20;;;16.40;99.90;;;;;;5020872;28;20387;-81
2021/06/26 05:24:16;;;;;;;0.40;0.20;;;16.40;99.90;;;;;;5019866;28;20430;-82
2021/06/26 05:26:42;;;;;;;0.40;0.20;;;16.40;99.90;;;;;;5019213;28;20457;-80
2021/06/26 05:29:08;;;;;;;0.40;0.20;;;16.50;99.90;;;;;;5021303;28;20736;-81
2021/06/26 05:31:33;;;;;;;0.40;0.20;;;16.60;99.90;;;;;;5020097;28;20387;-81
2021/06/26 05:33:59;;;;;;;0.40;0.20;;;16.60;99.90;;;;;;5017960;28;20902;-81
2021/06/26 05:36:25;;;;;;;0.40;0.20;;;16.60;99.90;;;;;;5018391;28;20399;-81
2021/06/26 05:38:51;;;;;;;0.40;0.20;;;16.60;99.90;;;;;;5019424;28;20391;-81
2021/06/26 05:41:17;;;;;;;0.40;0.28;;;16.60;99.90;;;;;;5020034;28;20402;-80
2021/06/26 05:43:42;;;;;;;0.40;0.30;;;16.50;99.90;;;;;;5017495;28;20898;-81
2021/06/26 05:46:08;;;;;;;0.40;0.30;;;16.60;99.90;;;;;;5019904;28;20410;-81
2021/06/26 05:48:34;;;;;;;0.40;0.20;;;16.60;99.90;;;;;;5017840;28;20434;-81
2021/06/26 05:51:00;;;;;;;0.40;0.30;;;16.60;99.90;;;;;;4992170;28;20391;-81
2021/06/26 05:53:26;;;;;;;0.40;0.20;;;16.60;99.90;;;;;;5000013;28;20588;-81
2021/06/26 05:55:59;;;;;;;0.40;0.30;;;16.60;99.90;;;;;;5019593;28;20422;-81
2021/06/26 05:58:27;;;;;;;0.40;0.20;;;16.70;99.90;;;;;;5019811;28;20387;-80
2021/06/26 06:00:54;;;;;;;0.40;0.30;;;16.70;99.90;;;;;;5016975;28;20430;-81
2021/06/26 06:03:20;;;;;;;0.40;0.20;;;16.90;99.90;;;;;;4995701;28;20973;-81
2021/06/26 06:05:47;;;;;;;0.40;0.22;;;17.00;99.90;;;;;;5017322;28;20399;-83
2021/06/26 06:08:16;;;;;;;0.40;0.20;;;17.00;99.90;;;;;;5017668;28;20411;-81
2021/06/26 06:10:42;;;;;;;0.40;0.30;;;17.10;99.90;;;;;;5019120;28;20383;-81
2021/06/26 06:13:20;;;;;;;0.40;0.23;;;17.20;99.90;;;;;;5018116;28;20937;-82
2021/06/26 06:15:48;;;;;;;0.40;0.20;;;17.20;99.90;;;;;;5013872;28;20392;-81
2021/06/26 06:18:15;;;;;;;0.40;0.20;;;17.20;99.90;;;;;;4988000;28;20469;-81
2021/06/26 06:20:41;;;;;;;0.40;0.20;;;17.20;99.90;;;;;;4984475;28;21163;-81
2021/06/26 06:23:11;;;;;;;0.40;0.20;;;17.20;99.90;;;;;;5008694;28;20426;-81
2021/06/26 06:25:36;;;;;;;0.40;0.30;;;17.20;99.90;;;;;;5017523;28;20411;-80
2021/06/26 06:28:03;;;;;;;0.40;0.20;;;17.20;99.90;;;;;;5019541;28;20395;-80
2021/06/26 06:30:31;;;;;;;0.40;0.22;;;17.20;99.90;;;;;;5017293;28;20387;-82
2021/06/26 06:33:00;;;;;;;0.40;0.30;;;17.30;99.90;;;;;;5016941;28;20383;-81
2021/06/26 06:35:27;;;;;;;0.40;0.20;;;17.70;99.90;;;;;;5017944;28;20427;-81
2021/06/26 06:37:53;;;;;;;0.40;0.20;;;17.60;99.90;;;;;;5017908;28;20867;-81
2021/06/26 06:40:19;;;;;;;0.40;0.30;;;17.60;99.90;;;;;;5019259;28;20984;-81
2021/06/26 06:42:45;;;;;;;0.40;0.30;;;17.80;99.90;;;;;;5016439;28;20399;-82
2021/06/26 06:45:12;;;;;;;0.40;0.20;;;17.70;99.90;;;;;;5016259;28;20417;-81
2021/06/26 06:47:38;;;;;;;0.40;0.30;;;17.80;99.90;;;;;;5018073;28;20771;-81
2021/06/26 06:50:06;;;;;;;0.40;0.20;;;17.90;99.90;;;;;;5017252;28;20395;-81
2021/06/26 06:52:32;;;;;;;0.40;0.25;;;18.00;99.90;;;;;;5015829;28;20406;-81
2021/06/26 06:54:58;;;;;;;0.40;0.30;;;17.90;99.90;;;;;;5017201;28;20387;-82
2021/06/26 06:57:25;;;;;;;0.40;0.30;;;18.00;99.90;;;;;;5016766;28;20791;-81
2021/06/26 06:59:52;;;;;;;0.40;0.20;;;18.10;99.90;;;;;;4993930;28;20758;-81
2021/06/26 07:02:19;;;;;;;0.40;0.20;;;18.10;99.90;;;;;;5004881;28;20398;-81
2021/06/26 07:04:45;;;;;;;0.40;0.20;;;18.20;99.90;;;;;;5020932;28;20409;-81
2021/06/26 07:07:10;;;;;;;0.40;0.30;;;18.20;99.90;;;;;;5023302;28;20875;-80
2021/06/26 07:09:36;;;;;;;0.40;0.30;;;18.20;99.90;;;;;;5020315;28;20414;-82
2021/06/26 07:12:02;;;;;;;0.40;0.30;;;18.20;99.90;;;;;;5018811;28;20714;-80
2021/06/26 07:14:28;;;;;;;0.40;0.30;;;18.30;99.90;;;;;;5025806;28;20453;-80
2021/06/26 07:16:54;;;;;;;0.40;0.20;;;18.40;99.90;;;;;;5027930;28;20387;-80
2021/06/26 07:19:19;;;;;;;0.40;0.20;;;18.40;99.90;;;;;;5020646;28;20461;-80
2021/06/26 07:21:45;;;;;;;0.40;0.30;;;18.50;99.90;;;;;;5019025;28;20697;-81
2021/06/26 07:24:11;;;;;;;0.40;0.20;;;18.60;99.90;;;;;;5018301;28;20515;-80
2021/06/26 07:26:37;;;;;;;0.40;0.30;;;18.80;99.90;;;;;;5017829;28;20893;-81
2021/06/26 07:29:04;;;;;;;0.40;0.30;;;18.90;99.90;;;;;;5020886;28;20384;-80
2021/06/26 07:31:30;;;;;;;0.40;0.20;;;18.80;99.90;;;;;;5021208;28;20458;-81
2021/06/26 07:33:56;;;;;;;0.40;0.30;;;18.70;99.90;;;;;;5015184;28;20385;-80
2021/06/26 07:36:22;;;;;;;0.40;0.20;;;18.80;99.90;;;;;;5023144;28;20470;-80
2021/06/26 07:38:48;;;;;;;0.40;0.20;;;18.80;99.90;;;;;;5023213;28;20541;-82
2021/06/26 07:41:13;;;;;;;0.40;0.20;;;18.70;99.90;;;;;;5023805;28;20848;-81
2021/06/26 07:43:39;;;;;;;0.40;0.40;;;18.70;99.90;;;;;;5021706;28;20455;-81
2021/06/26 07:46:06;;;;;;;0.40;0.20;;;18.90;99.90;;;;;;5018149;28;20892;-81
2021/06/26 07:48:32;;;;;;;0.40;0.20;;;19.00;99.90;;;;;;5025146;28;20411;-80
2021/06/26 07:51:06;;;;;;;0.40;0.20;;;19.00;99.90;;;;;;5027853;28;20390;-81
2021/06/26 07:53:31;;;;;;;0.40;0.20;;;19.20;99.90;;;;;;5038415;28;20481;-82
2021/06/26 07:55:57;;;;;;;0.40;0.20;;;19.10;99.90;;;;;;5031752;28;20447;-80
2021/06/26 07:58:25;;;;;;;0.40;0.20;;;19.20;99.90;;;;;;5030241;28;20963;-82
2021/06/26 08:00:51;;;;;;;0.40;0.30;;;19.30;99.90;;;;;;5031646;28;20388;-81
2021/06/26 08:03:17;;;;;;;0.40;0.20;;;19.30;99.90;;;;;;5047273;28;20458;-82
2021/06/26 08:05:44;;;;;;;0.40;0.25;;;19.30;99.90;;;;;;5033115;28;20407;-80
2021/06/26 08:08:10;;;;;;;0.40;0.20;;;19.40;99.90;;;;;;5033159;28;20428;-81
2021/06/26 08:10:36;;;;;;;0.40;0.30;;;19.40;99.90;;;;;;5044267;28;20795;-88
2021/06/26 08:13:02;;;;;;;0.40;0.30;;;19.40;99.90;;;;;;5037694;28;20654;-78
2021/06/26 08:15:28;;;;;;;0.40;0.30;;;19.40;99.90;;;;;;5034716;28;20383;-77
2021/06/26 08:17:53;;;;;;;0.40;0.30;;;19.30;99.90;;;;;;5038963;28;20391;-79
2021/06/26 08:20:19;;;;;;;0.40;0.20;;;19.10;99.90;;;;;;5034733;28;20425;-80
2021/06/26 08:22:45;;;;;;;0.40;0.30;;;19.50;99.90;;;;;;5033629;28;20376;-81
2021/06/26 08:25:11;;;;;;;0.40;0.23;;;19.50;99.90;;;;;;5034092;28;20418;-78
2021/06/26 08:27:36;;;;;;;0.40;0.20;;;19.40;99.90;;;;;;5032708;28;20487;-82
2021/06/26 08:30:03;;;;;;;0.40;0.20;;;19.50;99.90;;;;;;5034387;28;20478;-77
2021/06/26 08:32:28;;;;;;;0.40;0.20;;;19.50;99.90;;;;;;5034882;28;20382;-78
2021/06/26 08:34:54;;;;;;;0.40;0.20;;;19.50;99.90;;;;;;5027016;28;20392;-79
2021/06/26 08:37:20;;;;;;;0.40;0.20;;;19.60;99.90;;;;;;5020529;28;20448;-78
2021/06/26 08:39:45;;;;;;;0.40;0.20;;;19.70;99.90;;;;;;5033477;28;20387;-80
2021/06/26 08:42:11;;;;;;;0.40;0.20;;;19.60;99.90;;;;;;5033938;28;20883;-76
2021/06/26 08:44:39;;;;;;;0.40;0.30;;;19.60;99.90;;;;;;5033862;28;20411;-84
2021/06/26 08:47:05;;;;;;;0.40;0.20;;;19.70;99.90;;;;;;5034958;28;20432;-77
2021/06/26 08:49:31;;;;;;;0.40;0.30;;;20.00;99.90;;;;;;5041170;28;20387;-76
2021/06/26 08:51:57;;;;;;;0.40;0.20;;;20.10;99.90;;;;;;5033050;28;20887;-77
2021/06/26 08:54:23;;;;;;;0.40;0.20;;;20.00;99.90;;;;;;5034167;28;20387;-78
2021/06/26 08:56:50;;;;;;;0.40;0.30;;;20.00;99.90;;;;;;5033131;28;20395;-78
2021/06/26 08:59:16;;;;;;;0.40;0.20;;;20.10;99.90;;;;;;5033845;28;20380;-78
2021/06/26 09:01:43;;;;;;;0.40;0.20;;;20.00;99.90;;;;;;5034932;28;20839;-78
2021/06/26 09:04:13;;;;;;;0.40;0.30;;;20.00;99.90;;;;;;5033588;28;20419;-79
2021/06/26 09:06:58;;;;;;;0.40;0.30;;;20.30;99.90;;;;;;5034997;28;20418;-81
2021/06/26 09:09:35;;;;;;;0.40;0.30;;;20.50;99.90;;;;;;5017762;28;20469;-77
2021/06/26 09:12:09;;;;;;;0.40;0.30;;;20.60;99.90;;;;;;5033249;28;20400;-78
2021/06/26 09:14:37;;;;;;;0.40;0.30;;;20.60;99.90;;;;;;5033194;28;20400;-77
2021/06/26 09:17:04;;;;;;;0.40;0.30;;;20.50;99.90;;;;;;5035322;28;20406;-79
2021/06/26 09:19:31;;;;;;;0.40;0.30;;;20.60;99.90;;;;;;5041290;28;20384;-77
2021/06/26 09:21:58;;;;;;;0.40;0.20;;;20.60;99.90;;;;;;5041628;28;20451;-79
2021/06/26 09:24:24;;;;;;;0.40;0.20;;;20.40;99.90;;;;;;5040431;28;20899;-79
2021/06/26 09:26:59;;;;;;;0.40;0.20;;;20.40;99.90;;;;;;5040666;28;20391;-76
2021/06/26 09:29:26;;;;;;;0.40;0.20;;;20.60;99.90;;;;;;5039257;28;20399;-78
2021/06/26 09:32:04;;;;;;;0.40;0.20;;;20.70;99.90;;;;;;5039756;28;20389;-78
2021/06/26 09:34:37;;;;;;;0.40;0.20;;;20.80;99.90;;;;;;5040446;28;20447;-76
2021/06/26 09:37:05;;;;;;;0.40;0.20;;;20.70;99.90;;;;;;5037139;28;20389;-79
2021/06/26 09:39:45;;;;;;;0.40;0.30;;;20.80;99.90;;;;;;5039785;28;20898;-81
2021/06/26 09:42:19;;;;;;;0.40;0.30;;;20.80;99.90;;;;;;5034869;28;20393;-81
2021/06/26 09:44:53;;;;;;;0.40;0.30;;;20.90;99.90;;;;;;5037475;28;20409;-80
2021/06/26 09:47:27;;;;;;;0.40;0.30;;;21.10;99.90;;;;;;5042024;28;20397;-76
2021/06/26 09:49:53;;;;;;;0.40;0.30;;;21.30;99.90;;;;;;5041331;28;20463;-77
2021/06/26 09:52:19;;;;;;;0.40;0.30;;;21.40;99.90;;;;;;5039909;28;20388;-78
2021/06/26 09:54:44;;;;;;;0.40;0.20;;;21.40;99.90;;;;;;5042178;28;20460;-77
2021/06/26 09:57:10;;;;;;;0.40;0.30;;;21.50;99.90;;;;;;5041124;28;20391;-77
2021/06/26 09:59:36;;;;;;;0.40;0.20;;;21.60;99.90;;;;;;5040866;28;20389;-80
2021/06/26 10:02:02;;;;;;;0.40;0.20;;;21.60;99.90;;;;;;5038392;28;20748;-77
2021/06/26 10:04:28;;;;;;;0.40;0.20;;;21.60;99.90;;;;;;5045053;28;20410;-76
2021/06/26 10:06:56;;;;;;;0.40;0.20;;;21.60;99.90;;;;;;5033221;28;20383;-78
2021/06/26 10:09:24;;;;;;;0.40;0.20;;;21.60;99.90;;;;;;5032839;28;20387;-77
2021/06/26 10:11:51;;;;;;;0.40;0.30;;;21.40;99.90;;;;;;5031962;28;20455;-76
2021/06/26 10:14:18;;;;;;;0.40;0.20;;;21.60;99.90;;;;;;5032814;28;20474;-78
2021/06/26 10:16:43;;;;;;;0.40;0.20;;;21.80;99.90;;;;;;5030287;28;20406;-78
2021/06/26 10:19:14;;;;;;;0.40;0.20;;;21.90;99.90;;;;;;5029784;28;20478;-76
2021/06/26 10:21:43;;;;;;;0.40;0.20;;;21.90;99.90;;;;;;5024422;28;20402;-76
2021/06/26 10:24:12;;;;;;;0.40;0.20;;;21.70;99.90;;;;;;5013695;28;20468;-82
2021/06/26 10:26:39;;;;;;;0.40;0.30;;;21.60;99.90;;;;;;5015428;28;20800;-81
2021/06/26 10:29:06;;;;;;;0.40;0.30;;;21.50;99.90;;;;;;5011446;28;20853;-81
2021/06/26 10:31:40;;;;;;;0.40;0.20;;;21.80;99.90;;;;;;5011247;28;20885;-77
2021/06/26 10:34:22;;;;;;;0.40;0.30;;;21.90;99.90;;;;;;5012738;28;20773;-77
2021/06/26 10:36:54;;;;;;;0.40;0.20;;;22.00;99.90;;;;;;5018997;28;20400;-74
2021/06/26 10:39:27;;;;;;;0.40;0.20;;;22.00;99.90;;;;;;5023960;28;20381;-76
2021/06/26 10:42:05;;;;;;;0.40;0.30;;;21.90;99.90;;;;;;5025490;28;20434;-80
2021/06/26 10:44:51;;;;;;;0.40;0.30;;;22.10;99.90;;;;;;5031717;28;20891;-81
2021/06/26 10:47:18;;;;;;;0.40;0.20;;;22.30;99.90;;;;;;5032311;28;20464;-82
2021/06/26 10:49:45;;;;;;;0.40;0.25;;;22.20;99.90;;;;;;5031989;28;20391;-82
2021/06/26 10:52:14;;;;;;;0.40;0.20;;;22.40;99.90;;;;;;5028022;28;20871;-82
2021/06/26 10:54:51;;;;;;;0.40;0.30;;;22.60;99.90;;;;;;5023653;28;20430;-84
2021/06/26 10:57:17;;;;;;;0.40;0.30;;;22.70;99.90;;;;;;5020094;28;20808;-81
2021/06/26 10:59:56;;;;;;;0.40;0.30;;;22.70;99.90;;;;;;5031026;28;20391;-82
2021/06/26 11:02:22;;;;;;;0.40;0.20;;;22.60;99.90;;;;;;5031738;28;20423;-82
2021/06/26 11:04:48;;;;;;;0.40;0.20;;;22.60;99.90;;;;;;5031153;28;20447;-82
2021/06/26 11:07:16;;;;;;;0.40;0.20;;;22.60;99.90;;;;;;5031985;28;20382;-83
2021/06/26 11:09:46;;;;;;;0.40;0.30;;;22.80;99.90;;;;;;5031313;28;20879;-84
2021/06/26 11:12:20;;;;;;;0.40;0.20;;;23.30;99.90;;;;;;5031645;28;20466;-79
2021/06/26 11:14:54;;;;;;;0.40;0.20;;;23.60;99.90;;;;;;5031521;28;20391;-82
2021/06/26 11:17:22;;;;;;;0.40;0.20;;;23.10;99.90;;;;;;5031458;28;20713;-83
2021/06/26 11:19:49;;;;;;;0.40;0.20;;;22.50;99.90;;;;;;5030834;28;20383;-82
2021/06/26 11:22:15;;;;;;;0.57;0.40;;;22.50;99.90;;;;;;5027720;28;20458;-83
2021/06/26 11:24:44;;;;;;;0.40;0.20;;;22.80;99.90;;;;;;5020520;28;20431;-79
2021/06/26 11:27:21;;;;;;;0.40;0.20;;;23.30;99.90;;;;;;5018816;28;20474;-80
2021/06/26 11:29:49;;;;;;;0.40;0.20;;;23.30;99.90;;;;;;5019414;28;20395;-84
2021/06/26 11:32:20;;;;;;;0.40;0.30;;;22.80;99.90;;;;;;5023234;28;20863;-83
2021/06/26 11:34:57;;;;;;;0.40;0.30;;;23.00;99.90;;;;;;5022922;28;20404;-80
2021/06/26 11:37:43;;;;;;;0.40;0.30;;;23.30;99.90;;;;;;5022344;28;20381;-82
2021/06/26 11:40:17;;;;;;;0.40;0.30;;;23.20;99.90;;;;;;5020516;28;20477;-81
2021/06/26 11:42:52;;;;;;;0.40;0.30;;;23.80;99.90;;;;;;5023295;28;20406;-81
2021/06/26 11:45:20;;;;;;;0.40;0.30;;;24.20;99.90;;;;;;5029001;28;20992;-82
2021/06/26 11:47:45;;;;;;;0.40;0.30;;;24.50;99.90;;;;;;5020912;28;20878;-84
2021/06/26 11:50:19;;;;;;;0.40;0.20;;;23.90;99.90;;;;;;5019524;28;20381;-82
2021/06/26 11:52:45;;;;;;;0.52;0.47;;;23.40;99.90;;;;;;5024177;28;20423;-83
2021/06/26 11:55:11;;;;;;;0.40;0.23;;;24.40;99.90;;;;;;5020520;28;20405;-81
2021/06/26 11:57:37;;;;;;;0.40;0.30;;;25.30;98.30;;;;;;5021395;28;20896;-82
2021/06/26 12:00:05;;;;;;;0.40;0.30;;;25.40;96.40;;;;;;5023520;28;20429;-81
2021/06/26 12:02:38;;;;;;;0.40;0.30;;;24.40;95.30;;;;;;5022411;28;20822;-82
2021/06/26 12:05:05;;;;;;;0.40;0.20;;;25.10;96.00;;;;;;5021668;28;20424;-86
2021/06/26 12:07:40;;;;;;;0.40;0.30;;;25.30;94.70;;;;;;5021115;28;20392;-79
2021/06/26 12:10:07;;;;;;;0.40;0.30;;;25.80;95.40;;;;;;5019241;28;20393;-81
2021/06/26 12:12:38;;;;;;;0.60;0.50;;;25.60;95.30;;;;;;5021557;28;20445;-79
2021/06/26 12:15:10;;;;;;;0.40;0.20;;;24.90;96.50;;;;;;5020992;28;20385;-83
2021/06/26 12:17:37;;;;;;;0.40;0.20;;;24.30;97.40;;;;;;5019582;28;20475;-84
2021/06/26 12:20:04;;;;;;;0.40;0.20;;;24.10;97.30;;;;;;5019324;28;20375;-80
2021/06/26 12:22:30;;;;;;;0.40;0.30;;;24.00;98.80;;;;;;5022008;28;20395;-85
2021/06/26 12:25:11;;;;;;;0.40;0.20;;;24.40;97.10;;;;;;5018574;28;20949;-85
2021/06/26 12:27:37;;;;;;;0.40;0.20;;;24.70;96.20;;;;;;5020759;28;20393;-82
2021/06/26 12:30:08;;;;;;;0.40;0.30;;;25.30;95.60;;;;;;5017747;28;20743;-81
2021/06/26 12:32:39;;;;;;;0.40;0.30;;;25.50;95.00;;;;;;5020855;28;20733;-82
2021/06/26 12:35:08;;;;;;;0.40;0.20;;;25.70;96.40;;;;;;5020984;28;20385;-82
2021/06/26 12:37:41;;;;;;;0.40;0.20;;;25.80;93.80;;;;;;5021237;28;20451;-82
2021/06/26 12:40:30;;;;;;;0.40;0.30;;;25.70;93.50;;;;;;5029262;28;20390;-83
2021/06/26 12:43:14;;;;;;;0.40;0.20;;;25.50;94.40;;;;;;5028489;28;20474;-80
2021/06/26 12:45:47;;;;;;;0.40;0.20;;;25.10;96.20;;;;;;5030561;28;20465;-78
2021/06/26 12:48:17;;;;;;;0.40;0.30;;;25.30;96.20;;;;;;5009994;28;21211;-78